createdAt,value
2023-03-19T00:04:13.664Z,10.30
2023-03-19T00:14:16.069Z,10.10
2023-03-19T00:24:17.904Z,10.00
2023-03-19T00:34:19.505Z,9.90
2023-03-19T00:44:21.207Z,9.80
2023-03-19T00:54:22.852Z,9.70
2023-03-19T01:04:24.534Z,9.60
2023-03-19T01:14:26.147Z,9.50
2023-03-19T01:24:31.940Z,9.40
2023-03-19T01:34:33.747Z,9.30
2023-03-19T01:44:37.840Z,9.30
2023-03-19T01:54:40.456Z,9.20
2023-03-19T02:04:45.617Z,9.20
2023-03-19T02:14:47.264Z,9.10
2023-03-19T02:24:55.300Z,9.20
2023-03-19T02:34:56.921Z,9.20
2023-03-19T02:44:58.724Z,9.30
2023-03-19T02:55:00.348Z,9.30
2023-03-19T03:05:01.973Z,9.30
2023-03-19T03:15:03.846Z,9.50
2023-03-19T03:25:06.056Z,9.60
2023-03-19T03:35:08.574Z,9.50
2023-03-19T03:45:12.122Z,9.60
2023-03-19T03:55:13.816Z,9.70
2023-03-19T04:05:16.265Z,9.70
2023-03-19T04:25:20.600Z,9.60
2023-03-19T04:35:22.841Z,9.70
2023-03-19T04:45:24.479Z,9.70
2023-03-19T04:55:26.492Z,9.70
2023-03-19T05:05:28.155Z,9.70
2023-03-19T05:25:35.168Z,9.70
2023-03-19T05:35:37.727Z,9.80
2023-03-19T05:45:40.243Z,9.80
2023-03-19T05:55:42.963Z,10.40
2023-03-19T06:05:44.572Z,10.70
2023-03-19T06:15:48.645Z,10.80
2023-03-19T06:25:50.419Z,10.80
2023-03-19T06:35:52.353Z,11.00
2023-03-19T06:45:54.091Z,11.10
2023-03-19T06:55:55.963Z,11.20
2023-03-19T07:05:57.784Z,11.30
2023-03-19T07:16:00.391Z,11.40
2023-03-19T07:26:02.008Z,11.50
2023-03-19T07:36:03.906Z,11.60
2023-03-19T07:46:06.243Z,11.80
2023-03-19T07:56:08.000Z,12.00
2023-03-19T08:06:09.943Z,12.20
2023-03-19T08:20:21.376Z,12.30
2023-03-19T08:30:22.999Z,12.30
2023-03-19T08:40:24.779Z,12.40
2023-03-19T08:50:27.512Z,12.70
2023-03-19T09:00:29.168Z,13.00
2023-03-19T09:10:31.076Z,13.30
